createdAt,value
2022-10-01T00:01:21.000Z,96241.66
2022-10-01T00:03:51.299Z,96240.56
2022-10-01T00:06:22.270Z,96235.34
2022-10-01T00:08:51.910Z,96231.81
2022-10-01T00:11:22.543Z,96229.06
2022-10-01T00:13:52.099Z,96226.56
2022-10-01T00:16:23.495Z,96233.81
2022-10-01T00:18:54.625Z,96232.19
2022-10-01T00:21:25.847Z,96239.00
2022-10-01T00:23:56.455Z,96239.88
2022-10-01T00:26:28.427Z,96237.97
2022-10-01T00:28:58.286Z,96241.22
2022-10-01T00:31:27.695Z,96238.50
2022-10-01T00:33:59.478Z,96236.00
2022-10-01T00:36:28.586Z,96237.69
2022-10-01T00:39:00.308Z,96230.03
2022-10-01T00:41:30.656Z,96232.19
2022-10-01T00:44:01.489Z,96239.78
2022-10-01T00:46:40.725Z,96238.31
2022-10-01T00:49:16.140Z,96233.72
2022-10-01T00:51:48.008Z,96247.22
2022-10-01T00:54:20.823Z,96244.16
2022-10-01T00:56:54.094Z,96234.91
2022-10-01T00:59:22.987Z,96235.41
2022-10-01T01:01:51.661Z,96232.13
2022-10-01T01:04:22.534Z,96236.00
2022-10-01T01:06:57.986Z,96236.00
2022-10-01T01:09:31.698Z,96232.19
2022-10-01T01:12:11.196Z,96227.59
2022-10-01T01:14:47.605Z,96201.72
2022-10-01T01:17:23.275Z,96212.06
2022-10-01T01:20:08.058Z,96217.75
2022-10-01T01:22:44.555Z,96210.69
2022-10-01T01:25:19.131Z,96209.88
2022-10-01T01:28:02.316Z,96205.19
2022-10-01T01:30:34.544Z,96205.97
2022-10-01T01:33:08.166Z,96212.41
2022-10-01T01:35:44.762Z,96209.94
2022-10-01T01:38:18.923Z,96200.31
2022-10-01T01:40:51.424Z,96202.31
2022-10-01T01:43:25.833Z,96207.41
2022-10-01T01:45:55.981Z,96207.38
2022-10-01T01:48:25.510Z,96220.09
2022-10-01T01:51:12.592Z,96199.25
2022-10-01T01:53:41.868Z,96213.88
2022-10-01T01:56:11.100Z,96180.81
2022-10-01T01:58:41.197Z,96226.28
2022-10-01T02:01:35.357Z,96222.19
2022-10-01T02:04:07.712Z,96218.94
2022-10-01T02:06:50.517Z,96213.06
2022-10-01T02:09:28.109Z,96195.28
2022-10-01T02:12:12.601Z,96219.72
2022-10-01T02:14:54.021Z,96206.34
2022-10-01T02:17:30.893Z,96213.66
2022-10-01T02:20:03.902Z,96216.63
2022-10-01T02:22:41.071Z,96209.06
2022-10-01T02:25:12.379Z,96213.34
2022-10-01T02:27:46.029Z,96212.53
2022-10-01T02:30:16.412Z,96209.56
2022-10-01T02:32:47.953Z,96209.47
2022-10-01T02:35:19.346Z,96210.38
2022-10-01T02:37:51.843Z,96209.56
2022-10-01T02:40:27.263Z,96212.03
2022-10-01T02:42:59.179Z,96199.72
2022-10-01T02:45:32.947Z,96199.06
2022-10-01T02:48:05.759Z,96202.31
2022-10-01T02:50:39.922Z,96195.28
2022-10-01T02:53:15.647Z,96195.28
2022-10-01T02:55:45.985Z,96201.28
2022-10-01T02:58:14.371Z,96198.56
2022-10-01T03:00:44.587Z,96196.34
2022-10-01T03:03:13.049Z,96195.69
2022-10-01T03:05:41.965Z,96189.84
2022-10-01T03:08:10.390Z,96187.41
2022-10-01T03:10:41.494Z,96188.22
2022-10-01T03:13:13.993Z,96190.00
2022-10-01T03:15:46.997Z,96188.69
2022-10-01T03:18:16.149Z,96186.59
2022-10-01T03:20:44.952Z,96188.94
2022-10-01T03:23:13.306Z,96192.88
2022-10-01T03:25:41.944Z,96185.00
2022-10-01T03:28:10.848Z,96189.34
2022-10-01T03:30:39.571Z,96193.63
2022-10-01T03:33:09.392Z,96185.72
2022-10-01T03:35:38.731Z,96187.19
2022-10-01T03:38:08.239Z,96193.41
2022-10-01T03:40:39.386Z,96190.72
2022-10-01T03:43:07.765Z,96182.75
2022-10-01T03:45:36.613Z,96193.31
2022-10-01T03:48:05.524Z,96189.47
2022-10-01T03:50:36.723Z,96182.84
2022-10-01T03:53:06.467Z,96184.31
2022-10-01T03:55:35.457Z,96185.63
2022-10-01T03:58:04.104Z,96172.00
2022-10-01T04:00:32.595Z,96170.59
2022-10-01T04:03:01.115Z,96171.44
2022-10-01T04:05:30.043Z,96176.19
2022-10-01T04:08:00.976Z,96170.91
2022-10-01T04:10:30.140Z,96173.34
2022-10-01T04:12:59.084Z,96172.28
2022-10-01T04:15:28.282Z,96178.91
2022-10-01T04:17:58.451Z,96181.03
2022-10-01T04:20:27.173Z,96174.00
2022-10-01T04:22:56.615Z,96177.66
2022-10-01T04:25:26.979Z,96182.72
2022-10-01T04:27:58.808Z,96168.72
2022-10-01T04:30:29.571Z,96166.34
2022-10-01T04:32:58.284Z,96163.06
2022-10-01T04:35:28.770Z,96158.88
2022-10-01T04:37:58.397Z,96155.00
2022-10-01T04:40:29.291Z,96160.31
2022-10-01T04:42:57.933Z,96162.19
2022-10-01T04:45:27.144Z,96162.66
2022-10-01T04:47:57.553Z,96158.19
2022-10-01T04:50:28.276Z,96163.59
2022-10-01T04:52:57.142Z,96159.94
2022-10-01T04:55:26.396Z,96155.81
2022-10-01T04:57:56.260Z,96162.13
2022-10-01T05:00:26.962Z,96168.22
2022-10-01T05:02:55.799Z,96163.25
2022-10-01T05:05:28.137Z,96172.53
2022-10-01T05:07:57.422Z,96176.06
2022-10-01T05:10:26.277Z,96163.84
2022-10-01T05:12:57.338Z,96165.81
2022-10-01T05:15:26.203Z,96165.38
2022-10-01T05:17:54.738Z,96168.25
2022-10-01T05:20:26.387Z,96166.19
2022-10-01T05:22:56.800Z,96165.22
2022-10-01T05:25:25.329Z,96170.13
2022-10-01T05:27:54.256Z,96170.63
2022-10-01T05:30:25.284Z,96170.38
2022-10-01T05:32:59.264Z,96169.81
2022-10-01T05:35:28.388Z,96160.41
2022-10-01T05:37:58.413Z,96182.84
2022-10-01T05:40:28.636Z,96182.59
2022-10-01T05:42:58.417Z,96182.03
2022-10-01T05:45:30.618Z,96182.03
2022-10-01T05:48:01.092Z,96180.00
2022-10-01T05:50:31.529Z,96184.44
2022-10-01T05:53:02.096Z,96186.63
2022-10-01T05:55:33.460Z,96178.75
2022-10-01T05:58:03.924Z,96186.16
2022-10-01T06:00:35.935Z,96185.16
2022-10-01T06:03:06.062Z,96185.09
2022-10-01T06:05:36.563Z,96183.88
2022-10-01T06:08:06.845Z,96172.47
2022-10-01T06:10:37.229Z,96179.84
2022-10-01T06:13:06.656Z,96187.00
2022-10-01T06:15:38.934Z,96188.41
2022-10-01T06:18:09.726Z,96198.06
2022-10-01T06:20:39.063Z,96194.28
2022-10-01T06:23:12.268Z,96191.59
2022-10-01T06:25:41.792Z,96203.41
2022-10-01T06:28:12.169Z,96207.84
2022-10-01T06:30:42.302Z,96214.41
2022-10-01T06:33:13.143Z,96212.38
2022-10-01T06:35:43.267Z,96199.94
2022-10-01T06:38:12.429Z,96209.25
2022-10-01T06:40:42.056Z,96204.72
2022-10-01T06:43:12.045Z,96202.69
2022-10-01T06:45:43.340Z,96208.97
2022-10-01T06:48:15.960Z,96217.09
2022-10-01T06:50:46.124Z,96203.81
2022-10-01T06:53:16.275Z,96195.38
2022-10-01T06:55:46.688Z,96208.56
2022-10-01T06:58:17.479Z,96208.38
2022-10-01T07:00:49.223Z,96205.88
2022-10-01T07:03:20.326Z,96208.56
2022-10-01T07:05:50.038Z,96197.72
2022-10-01T07:08:19.222Z,96212.31
2022-10-01T07:10:48.579Z,96205.81
2022-10-01T07:13:20.394Z,96203.69
2022-10-01T07:15:51.201Z,96193.34
2022-10-01T07:18:19.704Z,96185.44
2022-10-01T07:20:48.789Z,96189.31
2022-10-01T07:23:18.079Z,96193.09
2022-10-01T07:25:46.886Z,96199.50
2022-10-01T07:28:18.753Z,96196.53
2022-10-01T07:30:49.322Z,96176.50
2022-10-01T07:33:20.863Z,96183.63
2022-10-01T07:35:49.911Z,96180.63
2022-10-01T07:38:18.510Z,96179.53
2022-10-01T07:40:53.075Z,96171.72
2022-10-01T07:43:21.665Z,96184.78
2022-10-01T07:45:52.865Z,96161.31
2022-10-01T07:48:23.177Z,96183.53
2022-10-01T07:50:52.447Z,96190.03
2022-10-01T07:53:21.463Z,96180.13
2022-10-01T07:55:50.493Z,96171.16
2022-10-01T07:58:22.012Z,96173.94
2022-10-01T08:00:57.257Z,96182.34
2022-10-01T08:03:27.262Z,96181.66
2022-10-01T08:05:57.168Z,96179.03
2022-10-01T08:08:26.086Z,96162.56
2022-10-01T08:10:54.931Z,96172.16
2022-10-01T08:13:25.154Z,96165.94
2022-10-01T08:15:54.929Z,96168.72
2022-10-01T08:18:24.727Z,96175.06
2022-10-01T08:20:55.002Z,96169.44
2022-10-01T08:23:24.237Z,96165.69
2022-10-01T08:25:52.887Z,96161.75
2022-10-01T08:28:21.535Z,96160.53
2022-10-01T08:30:50.091Z,96148.97
2022-10-01T08:33:18.828Z,96138.16
2022-10-01T08:35:47.856Z,96142.13
2022-10-01T08:38:19.719Z,96144.69
2022-10-01T08:40:51.193Z,96152.09
2022-10-01T08:43:31.932Z,96148.81
2022-10-01T08:46:04.644Z,96139.56
2022-10-01T08:48:45.157Z,96137.38
2022-10-01T08:51:21.713Z,96130.38
2022-10-01T08:53:56.383Z,96131.50
2022-10-01T08:56:32.353Z,96128.22
2022-10-01T08:59:05.526Z,96123.06
2022-10-01T09:01:35.391Z,96123.63
2022-10-01T09:04:06.303Z,96128.28
2022-10-01T09:06:35.103Z,96125.84
2022-10-01T09:09:25.425Z,96127.47
2022-10-01T09:12:05.906Z,96127.47
2022-10-01T09:14:50.428Z,96120.13
2022-10-01T09:17:38.980Z,96132.13
2022-10-01T09:20:18.030Z,96132.97
2022-10-01T09:22:57.440Z,96128.94
2022-10-01T09:25:28.551Z,96131.09
2022-10-01T09:28:03.368Z,96124.63
2022-10-01T09:30:33.317Z,96127.06
2022-10-01T09:33:11.289Z,96137.13
2022-10-01T09:35:45.355Z,96127.34
2022-10-01T09:38:21.776Z,96122.69
2022-10-01T09:40:54.886Z,96135.53
2022-10-01T09:43:25.649Z,96132.03
2022-10-01T09:45:54.271Z,96128.78
2022-10-01T09:48:32.111Z,96134.19
2022-10-01T09:51:08.679Z,96128.47
2022-10-01T09:53:42.867Z,96126.31
2022-10-01T09:56:20.081Z,96116.50
2022-10-01T09:58:53.447Z,96126.03
2022-10-01T10:01:27.839Z,96123.59
2022-10-01T10:03:58.682Z,96107.00
2022-10-01T10:06:29.506Z,96124.97
2022-10-01T10:09:00.395Z,96127.72
2022-10-01T10:11:32.977Z,96131.78
2022-10-01T10:14:03.776Z,96112.69
2022-10-01T10:16:36.094Z,96145.91
2022-10-01T10:19:10.510Z,96143.72
2022-10-01T10:21:39.206Z,96142.03
2022-10-01T10:24:23.525Z,96149.63
2022-10-01T10:26:58.503Z,96144.13
2022-10-01T10:29:32.364Z,96155.47
2022-10-01T10:32:05.266Z,96157.28
2022-10-01T10:34:38.866Z,96159.97
2022-10-01T10:37:14.956Z,96163.22
2022-10-01T10:39:50.582Z,96169.63
2022-10-01T10:42:22.578Z,96161.19
2022-10-01T10:44:54.128Z,96168.22
2022-10-01T10:47:24.575Z,96165.22
2022-10-01T10:49:58.481Z,96160.00
2022-10-01T10:52:30.269Z,96160.28
2022-10-01T10:55:01.327Z,96161.09
2022-10-01T10:57:33.588Z,96151.47
2022-10-01T11:00:07.553Z,96150.88
2022-10-01T11:02:36.321Z,96142.50
2022-10-01T11:05:18.199Z,96140.84
2022-10-01T11:07:49.377Z,96143.53
2022-10-01T11:10:36.389Z,96137.50
2022-10-01T11:13:23.087Z,96140.97
2022-10-01T11:16:06.355Z,96136.56
2022-10-01T11:18:55.988Z,96131.34
2022-10-01T11:21:41.804Z,96126.13
2022-10-01T11:24:25.583Z,96135.03
2022-10-01T11:27:00.276Z,96127.66
2022-10-01T11:29:42.287Z,96112.19
2022-10-01T11:32:21.823Z,96120.53
2022-10-01T11:35:26.201Z,96121.09
2022-10-01T11:38:09.731Z,96117.50
2022-10-01T11:40:43.005Z,96115.31
2022-10-01T11:43:22.674Z,96121.03
2022-10-01T11:45:57.394Z,96116.91
2022-10-01T11:48:30.706Z,96110.56
2022-10-01T11:51:03.288Z,96115.38
2022-10-01T11:53:40.501Z,96117.19
2022-10-01T11:56:32.921Z,96118.22
2022-10-01T11:59:07.368Z,96121.25
2022-10-01T12:01:44.002Z,96127.53
2022-10-01T12:04:27.437Z,96132.72
2022-10-01T12:07:04.469Z,96130.22
2022-10-01T12:09:40.253Z,96132.09
2022-10-01T12:12:14.779Z,96118.28
2022-10-01T12:14:51.056Z,96123.44
2022-10-01T12:17:27.829Z,96126.97
2022-10-01T12:19:59.908Z,96125.78
2022-10-01T12:22:34.161Z,96118.34
2022-10-01T12:25:02.853Z,96105.25
2022-10-01T12:27:44.760Z,96110.50
2022-10-01T12:30:18.008Z,96111.75
2022-10-01T12:33:12.050Z,96102.19
2022-10-01T12:35:53.144Z,96102.03
2022-10-01T12:38:36.404Z,96085.78
2022-10-01T12:41:13.797Z,96080.69
2022-10-01T12:44:01.312Z,96077.16
2022-10-01T12:46:41.580Z,96073.38
2022-10-01T12:49:22.478Z,96061.91
2022-10-01T12:52:00.776Z,96048.88
2022-10-01T12:54:42.363Z,96049.63
2022-10-01T12:57:25.565Z,96072.03
2022-10-01T13:00:05.587Z,96067.16
2022-10-01T13:03:01.120Z,96084.34
2022-10-01T13:05:37.248Z,96095.50
2022-10-01T13:08:26.108Z,96095.88
2022-10-01T13:11:05.441Z,96110.88
2022-10-01T13:13:36.112Z,96113.78
2022-10-01T13:16:12.397Z,96112.47
2022-10-01T13:18:52.497Z,96122.28
2022-10-01T13:21:33.683Z,96111.75
2022-10-01T13:24:09.837Z,96109.56
2022-10-01T13:26:46.954Z,96110.44
2022-10-01T13:29:29.880Z,96109.53
2022-10-01T13:32:00.339Z,96083.00
2022-10-01T13:34:37.771Z,96106.34
2022-10-01T13:37:17.672Z,96105.00
2022-10-01T13:39:47.274Z,96083.31
2022-10-01T13:42:24.345Z,96111.50
2022-10-01T13:44:55.644Z,96116.19
2022-10-01T13:47:26.778Z,96108.59
2022-10-01T13:49:58.017Z,96113.53
2022-10-01T13:52:50.320Z,96120.34
2022-10-01T13:55:29.005Z,96109.47
2022-10-01T13:58:04.865Z,96129.84
2022-10-01T14:00:34.848Z,96109.69
2022-10-01T14:03:07.644Z,96114.66
2022-10-01T14:05:39.448Z,96117.91
2022-10-01T14:08:17.879Z,96123.88
2022-10-01T14:11:16.708Z,96135.28
2022-10-01T14:14:05.824Z,96123.66
2022-10-01T14:16:39.205Z,96130.72
2022-10-01T14:19:08.738Z,96128.75
2022-10-01T14:21:49.888Z,96122.84
2022-10-01T14:24:30.125Z,96116.91
2022-10-01T14:27:06.403Z,96123.97
2022-10-01T14:29:47.553Z,96118.06
2022-10-01T14:32:30.165Z,96114.84
2022-10-01T14:35:19.262Z,96116.22
2022-10-01T14:37:48.511Z,96120.06
2022-10-01T14:40:21.096Z,96116.81
2022-10-01T14:43:00.664Z,96116.84
2022-10-01T14:45:30.274Z,96111.66
2022-10-01T14:48:03.399Z,96110.84
2022-10-01T14:50:35.109Z,96098.41
2022-10-01T14:53:04.335Z,96111.25
2022-10-01T14:55:36.147Z,96104.75
2022-10-01T14:58:06.093Z,96110.44
2022-10-01T15:00:35.529Z,96108.53
2022-10-01T15:03:13.008Z,96112.34
2022-10-01T15:05:41.592Z,96104.22
2022-10-01T15:08:13.604Z,96103.44
2022-10-01T15:10:48.919Z,96110.25
2022-10-01T15:13:25.394Z,96110.00
2022-10-01T15:15:55.438Z,96123.91
2022-10-01T15:18:25.769Z,96109.25
2022-10-01T15:20:56.947Z,96115.28
2022-10-01T15:23:27.796Z,96118.88
2022-10-01T15:26:01.216Z,96102.25
2022-10-01T15:28:33.195Z,96124.38
2022-10-01T15:31:03.438Z,96119.25
2022-10-01T15:33:34.414Z,96124.41
2022-10-01T15:36:05.501Z,96113.00
2022-10-01T15:38:35.211Z,96120.28
2022-10-01T15:41:30.059Z,96127.94
2022-10-01T15:43:59.673Z,96122.47
2022-10-01T15:46:32.986Z,96118.66
2022-10-01T15:49:26.309Z,96101.19
2022-10-01T15:52:16.567Z,96117.53
2022-10-01T15:54:47.870Z,96117.13
2022-10-01T15:57:20.833Z,96124.53
2022-10-01T15:59:52.835Z,96134.56
2022-10-01T16:02:26.061Z,96135.38
2022-10-01T16:04:56.589Z,96142.19
2022-10-01T16:07:29.393Z,96132.06
2022-10-01T16:10:00.262Z,96132.09
2022-10-01T16:12:30.621Z,96119.19
2022-10-01T16:15:00.940Z,96122.84
2022-10-01T16:17:34.549Z,96106.16
2022-10-01T16:20:35.529Z,96130.66
2022-10-01T16:23:36.939Z,96136.94
2022-10-01T16:26:07.981Z,96139.63
2022-10-01T16:28:37.920Z,96135.25
2022-10-01T16:31:07.206Z,96146.13
2022-10-01T16:33:35.648Z,96145.53
2022-10-01T16:36:12.681Z,96137.16
2022-10-01T16:38:41.085Z,96147.22
2022-10-01T16:41:11.088Z,96149.34
2022-10-01T16:43:41.297Z,96150.13
2022-10-01T16:46:09.727Z,96155.78
2022-10-01T16:48:38.821Z,96158.28
2022-10-01T16:51:07.408Z,96164.53
2022-10-01T16:53:36.956Z,96156.53
2022-10-01T16:56:05.357Z,96171.28
2022-10-01T16:58:34.261Z,96168.56
2022-10-01T17:01:07.755Z,96172.91
2022-10-01T17:03:37.390Z,96175.38
2022-10-01T17:06:06.172Z,96166.09
2022-10-01T17:08:35.042Z,96164.19
2022-10-01T17:11:04.012Z,96159.31
2022-10-01T17:13:34.398Z,96165.84
2022-10-01T17:16:05.901Z,96164.53
2022-10-01T17:18:34.739Z,96181.63
2022-10-01T17:21:03.773Z,96163.09
2022-10-01T17:23:35.011Z,96183.75
2022-10-01T17:26:06.419Z,96183.22
2022-10-01T17:28:34.938Z,96191.88
2022-10-01T17:31:08.034Z,96191.69
2022-10-01T17:33:36.548Z,96194.13
2022-10-01T17:36:08.374Z,96193.81
2022-10-01T17:38:36.934Z,96202.28
2022-10-01T17:41:06.328Z,96203.03
2022-10-01T17:43:36.795Z,96199.00
2022-10-01T17:46:07.645Z,96211.78
2022-10-01T17:48:36.524Z,96208.53
2022-10-01T17:51:07.865Z,96227.00
2022-10-01T17:53:42.458Z,96235.75
2022-10-01T17:56:15.979Z,96234.91
2022-10-01T17:58:46.470Z,96235.47
2022-10-01T18:01:20.191Z,96220.72
2022-10-01T18:03:49.163Z,96239.28
2022-10-01T18:06:17.524Z,96253.94
2022-10-01T18:08:55.974Z,96252.31
2022-10-01T18:11:26.197Z,96260.72
2022-10-01T18:13:55.402Z,96271.84
2022-10-01T18:16:25.804Z,96260.19
2022-10-01T18:21:48.522Z,96272.69
2022-10-01T18:24:17.227Z,96258.16
2022-10-01T18:26:47.151Z,96264.59
2022-10-01T18:29:19.625Z,96276.00
2022-10-01T18:31:52.824Z,96278.72
2022-10-01T18:34:28.103Z,96275.50
2022-10-01T18:36:59.892Z,96273.59
2022-10-01T18:39:35.138Z,96289.63
2022-10-01T18:42:13.008Z,96280.38
2022-10-01T18:44:41.904Z,96278.19
2022-10-01T18:47:21.755Z,96276.31
2022-10-01T18:50:16.746Z,96287.94
2022-10-01T18:53:01.514Z,96290.66
2022-10-01T18:55:47.031Z,96287.38
2022-10-01T18:58:30.450Z,96289.84
2022-10-01T19:01:05.456Z,96293.38
2022-10-01T19:04:00.535Z,96296.91
2022-10-01T19:06:50.883Z,96305.09
2022-10-01T19:09:42.881Z,96280.31
2022-10-01T19:12:26.926Z,96301.56
2022-10-01T19:15:02.032Z,96292.59
2022-10-01T19:17:50.140Z,96306.78
2022-10-01T19:20:34.971Z,96307.00
2022-10-01T19:23:18.076Z,96303.47
2022-10-01T19:25:52.256Z,96305.91
2022-10-01T19:28:39.811Z,96316.56
2022-10-01T19:31:16.925Z,96320.09
2022-10-01T19:33:49.963Z,96311.88
2022-10-01T19:36:26.371Z,96324.44
2022-10-01T19:39:01.712Z,96328.78
2022-10-01T19:41:39.084Z,96329.06
2022-10-01T19:44:14.196Z,96334.22
2022-10-01T19:46:45.540Z,96341.28
2022-10-01T19:49:20.533Z,96343.19
2022-10-01T19:51:58.133Z,96354.38
2022-10-01T19:54:31.934Z,96349.78
2022-10-01T19:57:05.939Z,96363.03
2022-10-01T19:59:34.412Z,96360.88
2022-10-01T20:02:15.622Z,96353.16
2022-10-01T20:04:52.267Z,96369.59
2022-10-01T20:07:28.786Z,96370.09
2022-10-01T20:10:05.822Z,96375.53
2022-10-01T20:12:47.862Z,96372.31
2022-10-01T20:15:26.949Z,96385.31
2022-10-01T20:18:13.307Z,96387.22
2022-10-01T20:20:49.387Z,96406.50
2022-10-01T20:23:38.556Z,96407.81
2022-10-01T20:26:16.696Z,96414.00
2022-10-01T20:28:54.819Z,96408.91
2022-10-01T20:31:29.123Z,96419.78
2022-10-01T20:34:07.904Z,96416.25
2022-10-01T20:36:43.067Z,96417.81
2022-10-01T20:39:18.992Z,96418.38
2022-10-01T20:41:53.359Z,96423.22
2022-10-01T20:44:26.700Z,96426.22
2022-10-01T20:47:00.803Z,96439.28
2022-10-01T20:49:35.471Z,96434.09
2022-10-01T20:52:12.114Z,96439.59
2022-10-01T20:54:46.722Z,96441.72
2022-10-01T20:57:22.156Z,96460.75
2022-10-01T20:59:54.611Z,96457.47
2022-10-01T21:02:35.059Z,96451.47
2022-10-01T21:05:08.998Z,96450.09
2022-10-01T21:07:43.218Z,96450.66
2022-10-01T21:10:24.511Z,96447.94
2022-10-01T21:13:00.573Z,96456.91
2022-10-01T21:15:37.303Z,96458.81
2022-10-01T21:18:12.796Z,96477.00
2022-10-01T21:21:01.701Z,96465.06
2022-10-01T21:23:42.625Z,96470.50
2022-10-01T21:26:24.715Z,96478.38
2022-10-01T21:29:15.779Z,96484.88
2022-10-01T21:31:57.404Z,96491.97
2022-10-01T21:34:35.167Z,96473.38
2022-10-01T21:37:07.596Z,96493.59
2022-10-01T21:39:46.686Z,96499.94
2022-10-01T21:42:20.823Z,96508.06
2022-10-01T21:45:17.219Z,96506.19
2022-10-01T21:48:01.334Z,96517.56
2022-10-01T21:50:42.087Z,96521.59
2022-10-01T21:53:29.018Z,96519.94
2022-10-01T21:56:13.913Z,96527.84
2022-10-01T21:58:54.456Z,96537.41
2022-10-01T22:01:32.887Z,96534.69
2022-10-01T22:04:07.463Z,96538.53
2022-10-01T22:06:45.417Z,96541.84
2022-10-01T22:09:20.068Z,96548.41
2022-10-01T22:11:52.957Z,96544.38
2022-10-01T22:14:23.554Z,96545.75
2022-10-01T22:16:55.444Z,96549.03
2022-10-01T22:19:29.189Z,96552.84
2022-10-01T22:22:04.796Z,96557.19
2022-10-01T22:24:40.687Z,96554.00
2022-10-01T22:27:15.140Z,96558.59
2022-10-01T22:29:52.046Z,96570.53
2022-10-01T22:32:25.530Z,96570.78
2022-10-01T22:34:58.907Z,96576.22
2022-10-01T22:37:35.431Z,96569.69
2022-10-01T22:40:11.033Z,96572.41
2022-10-01T22:42:46.293Z,96581.97
2022-10-01T22:45:19.322Z,96585.78
2022-10-01T22:48:04.380Z,96587.91
2022-10-01T22:50:43.438Z,96587.09
2022-10-01T22:53:39.365Z,96604.53
2022-10-01T22:56:08.148Z,96609.91
2022-10-01T22:59:00.960Z,96616.97
2022-10-01T23:01:43.329Z,96611.53
2022-10-01T23:04:29.724Z,96612.09
2022-10-01T23:07:08.577Z,96620.50
2022-10-01T23:09:45.885Z,96627.03
2022-10-01T23:12:23.336Z,96631.38
2022-10-01T23:15:07.662Z,96643.66
2022-10-01T23:17:45.612Z,96640.94
2022-10-01T23:20:23.699Z,96654.28
2022-10-01T23:23:06.286Z,96646.38
2022-10-01T23:25:48.368Z,96645.88
2022-10-01T23:28:30.752Z,96651.06
2022-10-01T23:31:08.032Z,96656.75
2022-10-01T23:33:55.092Z,96663.81
2022-10-01T23:36:34.525Z,96662.75
2022-10-01T23:39:26.521Z,96666.06
2022-10-01T23:42:00.751Z,96666.28
2022-10-01T23:44:37.074Z,96670.91
2022-10-01T23:47:11.639Z,96685.56
2022-10-01T23:49:54.167Z,96689.69
2022-10-01T23:52:32.111Z,96683.41
2022-10-01T23:55:19.469Z,96690.53
2022-10-01T23:57:52.903Z,96679.31
